createdAt,value
2019-02-23T00:00:12.595Z,8.55
2019-02-23T00:02:42.192Z,9.88
2019-02-23T00:05:12.334Z,10.43
2019-02-23T00:07:42.428Z,9.18
2019-02-23T00:10:18.393Z,8.55
2019-02-23T00:12:48.555Z,8.15
2019-02-23T00:15:20.311Z,9.90
2019-02-23T00:17:52.214Z,10.55
2019-02-23T00:20:22.325Z,9.60
2019-02-23T00:22:52.174Z,8.85
2019-02-23T00:25:21.880Z,11.05
2019-02-23T00:28:02.662Z,10.28
2019-02-23T00:30:32.853Z,9.85
2019-02-23T00:33:03.656Z,8.75
2019-02-23T00:35:33.437Z,8.68
2019-02-23T00:38:03.741Z,8.20
2019-02-23T00:40:39.332Z,10.75
2019-02-23T00:43:10.470Z,9.18
2019-02-23T00:45:41.536Z,8.55
2019-02-23T00:48:18.431Z,9.10
2019-02-23T00:50:48.272Z,9.55
2019-02-23T00:53:17.976Z,8.15
2019-02-23T00:55:47.967Z,7.70
2019-02-23T00:58:23.600Z,8.50
2019-02-23T01:01:00.406Z,8.60
2019-02-23T01:03:30.510Z,8.63
2019-02-23T01:06:00.604Z,8.13
2019-02-23T01:08:30.710Z,8.50
2019-02-23T01:11:21.797Z,7.10
2019-02-23T01:13:51.961Z,7.20
2019-02-23T01:16:22.996Z,7.67
2019-02-23T01:19:00.900Z,8.75
2019-02-23T01:21:30.736Z,7.97
2019-02-23T01:24:00.724Z,7.08
2019-02-23T01:26:30.809Z,8.13
2019-02-23T01:29:01.656Z,8.00
2019-02-23T01:31:31.348Z,7.35
2019-02-23T01:34:03.010Z,7.42
2019-02-23T01:36:32.976Z,8.63
2019-02-23T01:39:03.952Z,7.72
2019-02-23T01:41:33.780Z,8.20
2019-02-23T01:44:04.408Z,6.95
2019-02-23T01:46:34.368Z,8.20
2019-02-23T01:49:04.218Z,7.17
2019-02-23T01:51:34.212Z,7.90
2019-02-23T01:54:06.852Z,7.30
2019-02-23T01:56:36.552Z,8.48
2019-02-23T01:59:06.236Z,7.97
2019-02-23T02:01:37.040Z,7.20
2019-02-23T02:04:07.965Z,7.92
2019-02-23T02:06:38.069Z,7.08
2019-02-23T02:09:10.672Z,7.30
2019-02-23T02:11:41.738Z,7.20
2019-02-23T02:14:11.652Z,6.42
2019-02-23T02:16:41.345Z,6.83
2019-02-23T02:19:12.256Z,7.15
2019-02-23T02:21:42.088Z,8.55
2019-02-23T02:24:11.805Z,6.65
2019-02-23T02:26:42.408Z,7.05
2019-02-23T02:29:12.104Z,6.72
2019-02-23T02:31:41.794Z,6.22
2019-02-23T02:34:15.741Z,7.03
2019-02-23T02:36:45.913Z,7.75
2019-02-23T02:39:15.920Z,7.15
2019-02-23T02:41:45.728Z,6.60
2019-02-23T02:44:15.456Z,6.25
2019-02-23T02:46:46.320Z,7.87
2019-02-23T02:49:16.423Z,8.03
2019-02-23T02:51:46.332Z,8.55
2019-02-23T02:54:16.960Z,8.00
2019-02-23T02:56:47.852Z,7.17
2019-02-23T02:59:17.686Z,6.55
2019-02-23T03:01:48.369Z,7.10
2019-02-23T03:04:32.208Z,7.78
2019-02-23T03:07:02.305Z,7.62
2019-02-23T03:09:33.053Z,6.50
2019-02-23T03:12:04.666Z,8.33
2019-02-23T03:14:34.628Z,7.92
2019-02-23T03:17:08.413Z,7.53
2019-02-23T03:19:39.469Z,8.38
2019-02-23T03:22:09.561Z,7.42
2019-02-23T03:24:39.680Z,7.15
2019-02-23T03:27:15.513Z,7.03
2019-02-23T03:29:45.490Z,8.35
2019-02-23T03:32:15.592Z,6.72
2019-02-23T03:34:45.718Z,7.28
2019-02-23T03:37:27.961Z,6.55
2019-02-23T03:40:08.636Z,7.05
2019-02-23T03:42:38.734Z,8.23
2019-02-23T03:45:10.505Z,7.95
2019-02-23T03:47:40.468Z,8.60
2019-02-23T03:50:10.585Z,8.15
2019-02-23T03:52:40.420Z,7.20
2019-02-23T03:55:12.389Z,7.47
2019-02-23T03:57:48.892Z,7.97
2019-02-23T04:00:18.609Z,7.60
2019-02-23T04:02:49.494Z,6.67
2019-02-23T04:05:19.329Z,7.42
2019-02-23T04:07:49.281Z,8.73
2019-02-23T04:10:21.374Z,8.43
2019-02-23T04:12:58.258Z,7.10
2019-02-23T04:15:28.408Z,8.23
2019-02-23T04:17:59.061Z,7.62
2019-02-23T04:20:29.046Z,8.18
2019-02-23T04:22:58.906Z,6.72
2019-02-23T04:25:32.019Z,7.75
2019-02-23T04:28:02.176Z,8.38
2019-02-23T04:30:35.254Z,8.73
2019-02-23T04:33:07.302Z,9.30
2019-02-23T04:35:37.402Z,8.28
2019-02-23T04:38:09.474Z,8.35
2019-02-23T04:40:40.217Z,7.30
2019-02-23T04:43:13.400Z,8.13
2019-02-23T04:45:55.266Z,8.60
2019-02-23T04:48:25.228Z,7.85
2019-02-23T04:50:55.322Z,7.37
2019-02-23T04:53:27.422Z,9.35
2019-02-23T04:55:57.261Z,8.13
2019-02-23T04:58:29.800Z,8.25
2019-02-23T05:01:06.544Z,8.53
2019-02-23T05:03:37.376Z,8.78
2019-02-23T05:06:07.315Z,10.03
2019-02-23T05:08:37.144Z,9.50
2019-02-23T05:11:06.836Z,9.88
2019-02-23T05:13:37.042Z,8.50
2019-02-23T05:16:06.904Z,8.70
2019-02-23T05:18:37.484Z,8.08
2019-02-23T05:21:07.438Z,9.48
2019-02-23T05:23:40.521Z,8.40
2019-02-23T05:26:10.617Z,9.48
2019-02-23T05:28:40.470Z,9.70
2019-02-23T05:31:13.070Z,8.88
2019-02-23T05:33:43.235Z,9.03
2019-02-23T05:36:13.335Z,10.20
2019-02-23T05:38:55.224Z,9.35
2019-02-23T05:41:28.316Z,10.90
2019-02-23T05:43:59.378Z,9.13
2019-02-23T05:46:29.253Z,8.80
2019-02-23T05:49:11.259Z,9.50
2019-02-23T05:51:41.112Z,8.98
2019-02-23T05:54:11.098Z,9.03
2019-02-23T05:56:40.925Z,8.63
2019-02-23T05:59:25.936Z,9.03
2019-02-23T06:01:55.632Z,8.88
2019-02-23T06:04:25.624Z,9.60
2019-02-23T06:06:55.460Z,8.85
2019-02-23T06:09:25.431Z,9.25
2019-02-23T06:11:56.418Z,8.83
2019-02-23T06:14:32.077Z,8.33
2019-02-23T06:17:04.166Z,8.45
2019-02-23T06:19:39.967Z,7.67
2019-02-23T06:22:10.074Z,7.62
2019-02-23T06:24:39.912Z,9.13
2019-02-23T06:27:09.872Z,8.80
2019-02-23T06:29:39.967Z,7.35
2019-02-23T06:32:10.956Z,8.30
2019-02-23T06:34:41.756Z,10.15
2019-02-23T06:37:32.921Z,9.10
2019-02-23T06:40:05.383Z,9.75
2019-02-23T06:42:35.509Z,9.48
2019-02-23T06:45:12.290Z,9.68
2019-02-23T06:47:47.633Z,10.45
2019-02-23T06:50:17.796Z,11.40
2019-02-23T06:52:47.857Z,10.63
2019-02-23T06:55:17.952Z,10.28
2019-02-23T06:57:48.966Z,9.05
2019-02-23T07:00:21.880Z,10.63
2019-02-23T07:02:55.946Z,10.00
2019-02-23T07:05:33.894Z,9.55
2019-02-23T07:08:03.999Z,7.00
2019-02-23T07:10:37.200Z,10.13
2019-02-23T07:13:07.063Z,8.50
2019-02-23T07:15:37.022Z,9.05
2019-02-23T07:18:16.245Z,8.43
2019-02-23T07:20:46.372Z,8.80
2019-02-23T07:23:22.636Z,9.98
2019-02-23T07:25:52.813Z,9.75
2019-02-23T07:28:23.930Z,10.05
2019-02-23T07:30:55.040Z,7.78
2019-02-23T07:33:32.875Z,9.13
2019-02-23T07:36:15.336Z,9.23
2019-02-23T07:38:45.462Z,8.70
2019-02-23T07:41:15.308Z,10.53
2019-02-23T07:43:52.358Z,8.08
2019-02-23T07:46:31.280Z,10.75
2019-02-23T07:49:02.286Z,10.28
2019-02-23T07:51:32.396Z,10.03
2019-02-23T07:54:02.498Z,9.05
2019-02-23T07:56:35.161Z,8.38
2019-02-23T07:59:05.296Z,10.20
2019-02-23T08:01:35.143Z,10.25
2019-02-23T08:04:08.681Z,11.38
2019-02-23T08:06:39.776Z,8.40
2019-02-23T08:09:10.744Z,9.88
2019-02-23T08:11:41.705Z,10.88
2019-02-23T08:14:15.449Z,10.58
2019-02-23T08:16:48.794Z,11.65
2019-02-23T08:19:18.898Z,11.57
2019-02-23T08:21:49.001Z,11.80
2019-02-23T08:24:20.056Z,9.88
2019-02-23T08:26:50.986Z,12.13
2019-02-23T08:29:21.982Z,11.75
2019-02-23T08:31:51.817Z,10.72
2019-02-23T08:34:21.804Z,11.00
2019-02-23T08:36:51.640Z,9.53
2019-02-23T08:39:21.386Z,8.65
2019-02-23T08:41:55.292Z,10.03
2019-02-23T08:44:25.129Z,8.90
2019-02-23T08:46:55.089Z,9.35
2019-02-23T08:49:27.208Z,8.63
2019-02-23T08:52:01.294Z,9.53
2019-02-23T08:54:37.661Z,9.58
2019-02-23T08:57:08.701Z,8.28
2019-02-23T08:59:38.800Z,9.00
2019-02-23T09:02:09.856Z,7.40
2019-02-23T09:04:41.679Z,6.65
2019-02-23T09:07:11.363Z,7.58
2019-02-23T09:09:41.064Z,7.35
2019-02-23T09:12:10.763Z,8.85
2019-02-23T09:14:41.337Z,7.70
2019-02-23T09:17:11.065Z,8.75
2019-02-23T09:19:40.753Z,8.80
2019-02-23T09:22:10.742Z,9.00
2019-02-23T09:24:40.578Z,6.28
2019-02-23T09:27:11.208Z,6.87
2019-02-23T09:29:41.856Z,6.22
2019-02-23T09:32:11.801Z,8.68
2019-02-23T09:34:41.916Z,9.80
2019-02-23T09:37:13.758Z,9.30
2019-02-23T09:39:46.995Z,8.18
2019-02-23T09:42:16.848Z,9.45
2019-02-23T09:44:46.548Z,10.57
2019-02-23T09:47:16.520Z,9.10
2019-02-23T09:49:48.569Z,8.80
2019-02-23T09:52:19.616Z,7.87
2019-02-23T09:54:51.692Z,7.10
2019-02-23T09:57:21.789Z,7.00
2019-02-23T09:59:51.881Z,7.10
2019-02-23T10:02:24.749Z,5.53
2019-02-23T10:04:54.449Z,7.13
2019-02-23T10:07:24.140Z,6.27
2019-02-23T10:09:57.840Z,6.43
2019-02-23T10:12:30.712Z,6.33
2019-02-23T10:15:00.725Z,6.67
2019-02-23T10:17:32.469Z,5.90
2019-02-23T10:20:02.164Z,7.57
2019-02-23T10:22:31.853Z,7.57
2019-02-23T10:25:02.737Z,6.97
2019-02-23T10:27:32.568Z,5.03
2019-02-23T10:30:02.278Z,6.17
2019-02-23T10:32:31.973Z,6.47
2019-02-23T10:35:06.364Z,5.97
2019-02-23T10:37:38.005Z,6.70
2019-02-23T10:40:10.224Z,8.10
2019-02-23T10:42:39.925Z,6.93
2019-02-23T10:45:12.605Z,5.47
2019-02-23T10:47:43.369Z,5.73
2019-02-23T10:50:15.712Z,5.40
2019-02-23T10:52:45.865Z,6.30
2019-02-23T10:55:16.385Z,5.50
2019-02-23T10:57:46.508Z,5.83
2019-02-23T11:00:22.849Z,5.40
2019-02-23T11:02:52.823Z,5.83
2019-02-23T11:05:22.750Z,5.97
2019-02-23T11:07:52.500Z,6.00
2019-02-23T11:10:22.605Z,5.50
2019-02-23T11:12:52.290Z,5.87
2019-02-23T11:15:22.591Z,5.23
2019-02-23T11:17:52.284Z,5.30
2019-02-23T11:20:22.696Z,4.60
2019-02-23T11:22:52.728Z,6.80
2019-02-23T11:25:28.573Z,4.87
2019-02-23T11:28:04.567Z,5.67
2019-02-23T11:30:34.394Z,4.83
2019-02-23T11:33:05.136Z,4.40
2019-02-23T11:35:35.704Z,5.43
2019-02-23T11:38:05.732Z,6.17
2019-02-23T11:40:35.576Z,5.10
2019-02-23T11:43:11.430Z,6.70
2019-02-23T11:45:41.276Z,6.10
2019-02-23T11:48:11.295Z,5.83
2019-02-23T11:50:41.455Z,5.47
2019-02-23T11:53:14.320Z,6.53
2019-02-23T11:55:45.209Z,5.30
2019-02-23T11:58:15.096Z,5.80
2019-02-23T12:00:44.805Z,4.83
2019-02-23T12:03:20.925Z,5.70
2019-02-23T12:05:51.876Z,5.63
2019-02-23T12:08:23.078Z,6.23
2019-02-23T12:10:56.034Z,4.80
2019-02-23T12:13:28.141Z,5.80
2019-02-23T12:15:57.852Z,5.03
2019-02-23T12:18:27.825Z,5.13
2019-02-23T12:20:57.930Z,4.20
2019-02-23T12:23:27.772Z,5.10
2019-02-23T12:25:57.586Z,3.10
2019-02-23T12:28:30.320Z,2.73
2019-02-23T12:31:00.044Z,3.33
2019-02-23T12:33:29.761Z,2.90
2019-02-23T12:36:00.717Z,5.93
2019-02-23T12:38:36.236Z,3.70
2019-02-23T12:41:05.944Z,3.27
2019-02-23T12:43:35.640Z,3.30
2019-02-23T12:46:05.600Z,2.60
2019-02-23T12:48:37.673Z,2.70
2019-02-23T12:51:07.769Z,2.80
2019-02-23T12:53:37.632Z,2.40
2019-02-23T12:56:08.276Z,2.67
2019-02-23T12:58:37.965Z,4.53
2019-02-23T13:01:07.701Z,3.17
2019-02-23T13:03:37.395Z,3.60
2019-02-23T13:06:13.172Z,2.57
2019-02-23T13:09:14.560Z,3.10
2019-02-23T13:12:01.637Z,2.10
2019-02-23T13:14:42.893Z,2.67
2019-02-23T13:17:17.720Z,3.43
2019-02-23T13:20:22.340Z,2.30
2019-02-23T13:22:55.149Z,2.30
2019-02-23T13:26:25.840Z,2.90
2019-02-23T13:29:21.748Z,1.40
2019-02-23T13:32:29.734Z,1.80
2019-02-23T13:35:26.204Z,1.73
2019-02-23T13:38:17.476Z,2.43
2019-02-23T13:41:05.172Z,1.90
2019-02-23T13:43:43.763Z,2.97
2019-02-23T13:46:40.874Z,2.60
2019-02-23T13:49:28.098Z,2.20
2019-02-23T13:52:02.688Z,1.67
2019-02-23T13:55:22.630Z,1.90
2019-02-23T13:58:00.195Z,1.63
2019-02-23T14:00:52.994Z,0.90
2019-02-23T14:03:53.484Z,1.93
2019-02-23T14:06:41.197Z,1.30
2019-02-23T14:09:42.940Z,1.30
2019-02-23T14:12:21.580Z,1.60
2019-02-23T14:15:07.081Z,1.13
2019-02-23T14:18:03.980Z,1.30
2019-02-23T14:20:54.692Z,2.00
2019-02-23T14:23:56.502Z,1.87
2019-02-23T14:26:39.242Z,1.13
2019-02-23T14:29:46.061Z,1.77
2019-02-23T14:32:42.608Z,1.70
2019-02-23T14:35:33.611Z,1.50
2019-02-23T14:38:07.256Z,2.53
2019-02-23T14:40:54.925Z,2.30
2019-02-23T14:43:30.692Z,1.70
2019-02-23T14:46:23.456Z,2.30
2019-02-23T14:49:31.714Z,2.97
2019-02-23T14:52:44.405Z,2.00
2019-02-23T14:55:21.833Z,2.37
2019-02-23T14:58:21.303Z,2.73
2019-02-23T15:01:18.368Z,2.07
2019-02-23T15:04:14.275Z,1.00
2019-02-23T15:07:11.889Z,1.30
2019-02-23T15:10:16.532Z,2.07
2019-02-23T15:13:02.771Z,1.40
2019-02-23T15:15:55.209Z,1.40
2019-02-23T15:18:51.872Z,1.03
2019-02-23T15:21:50.562Z,0.90
2019-02-23T15:25:13.211Z,0.80
2019-02-23T15:28:07.133Z,1.53
2019-02-23T15:30:42.367Z,2.80
2019-02-23T15:33:47.549Z,1.80
2019-02-23T15:36:39.842Z,2.07
2019-02-23T15:39:43.608Z,1.95
2019-02-23T15:42:31.362Z,1.70
2019-02-23T15:45:26.639Z,1.30
2019-02-23T15:48:35.915Z,1.40
2019-02-23T15:51:07.007Z,2.10
2019-02-23T15:53:36.848Z,2.02
2019-02-23T15:56:12.584Z,1.80
2019-02-23T15:58:42.437Z,2.47
2019-02-23T16:01:12.476Z,2.25
2019-02-23T16:03:42.608Z,1.80
2019-02-23T16:06:15.380Z,2.42
2019-02-23T16:08:45.497Z,1.92
2019-02-23T16:11:26.514Z,1.90
2019-02-23T16:13:56.348Z,2.30
2019-02-23T16:16:27.208Z,2.80
2019-02-23T16:18:58.204Z,2.17
2019-02-23T16:21:35.657Z,5.00
2019-02-23T16:24:06.668Z,6.95
2019-02-23T16:26:36.496Z,2.83
2019-02-23T16:29:06.933Z,2.22
2019-02-23T16:31:36.848Z,2.47
2019-02-23T16:34:07.465Z,3.10
2019-02-23T16:36:39.469Z,2.40
2019-02-23T16:39:10.692Z,2.22
2019-02-23T16:41:46.620Z,2.35
2019-02-23T16:44:28.864Z,5.15
2019-02-23T16:46:58.708Z,4.50
2019-02-23T16:49:35.168Z,3.08
2019-02-23T16:52:09.379Z,2.70
2019-02-23T16:54:39.409Z,2.85
2019-02-23T16:57:09.512Z,2.60
2019-02-23T16:59:40.309Z,2.60
2019-02-23T17:02:12.198Z,2.45
2019-02-23T17:04:53.066Z,3.08
2019-02-23T17:07:13.840Z,2.37
2019-02-23T17:09:47.516Z,2.50
2019-02-23T17:12:17.468Z,2.60
2019-02-23T17:14:52.060Z,2.42
2019-02-23T17:17:23.165Z,2.70
2019-02-23T17:19:53.829Z,2.55
2019-02-23T17:22:26.591Z,2.67
2019-02-23T17:24:57.744Z,2.85
2019-02-23T17:27:36.169Z,2.50
2019-02-23T17:30:03.633Z,2.50
2019-02-23T17:32:36.767Z,2.85
2019-02-23T17:35:06.992Z,2.90
2019-02-23T17:37:36.684Z,2.75
2019-02-23T17:40:15.970Z,2.80
2019-02-23T17:42:49.092Z,3.30
2019-02-23T17:45:23.928Z,3.08
2019-02-23T17:47:54.869Z,3.87
2019-02-23T17:50:24.957Z,3.08
2019-02-23T17:53:01.673Z,4.33
2019-02-23T17:55:33.396Z,2.90
2019-02-23T17:58:03.498Z,3.25
2019-02-23T18:00:35.534Z,3.47
2019-02-23T18:03:06.322Z,3.70
2019-02-23T18:05:39.061Z,3.20
2019-02-23T18:08:10.214Z,3.55
2019-02-23T18:10:48.592Z,3.77
2019-02-23T18:13:18.740Z,3.62
2019-02-23T18:15:49.746Z,5.55
2019-02-23T18:18:24.424Z,5.00
2019-02-23T18:20:57.640Z,3.65
2019-02-23T18:23:34.642Z,3.85
2019-02-23T18:26:05.567Z,5.85
2019-02-23T18:28:35.405Z,6.67
2019-02-23T18:31:11.622Z,7.95
2019-02-23T18:33:43.696Z,9.78
2019-02-23T18:36:15.005Z,5.80
2019-02-23T18:38:45.768Z,5.83
2019-02-23T18:41:24.718Z,5.15
2019-02-23T18:43:59.684Z,3.75
2019-02-23T18:46:34.304Z,5.00
2019-02-23T18:49:04.287Z,4.72
2019-02-23T18:51:35.278Z,9.55
2019-02-23T18:54:06.904Z,8.33
2019-02-23T18:56:45.616Z,9.05
2019-02-23T18:59:15.723Z,9.65
2019-02-23T19:01:47.732Z,9.33
2019-02-23T19:04:23.990Z,12.95
2019-02-23T19:06:54.134Z,11.85
2019-02-23T19:09:32.964Z,6.05
2019-02-23T19:12:10.119Z,4.20
2019-02-23T19:14:55.710Z,4.65
2019-02-23T19:17:32.762Z,5.45
2019-02-23T19:20:04.012Z,4.40
2019-02-23T19:22:34.732Z,3.85
2019-02-23T19:25:11.467Z,4.30
2019-02-23T19:27:49.458Z,3.75
2019-02-23T19:30:20.673Z,4.75
2019-02-23T19:32:52.894Z,4.12
2019-02-23T19:35:23.736Z,4.67
2019-02-23T19:37:56.747Z,6.05
2019-02-23T19:40:26.849Z,5.20
2019-02-23T19:42:57.217Z,7.20
2019-02-23T19:45:29.307Z,6.10
2019-02-23T19:48:00.775Z,5.45
2019-02-23T19:50:35.184Z,5.28
2019-02-23T19:53:07.080Z,4.83
2019-02-23T19:55:37.196Z,4.45
2019-02-23T19:58:07.296Z,5.40
2019-02-23T20:00:37.399Z,5.53
2019-02-23T20:03:10.187Z,4.20
2019-02-23T20:05:41.182Z,4.28
2019-02-23T20:08:11.296Z,4.90
2019-02-23T20:10:42.930Z,3.70
2019-02-23T20:13:13.536Z,4.83
2019-02-23T20:15:44.566Z,4.25
2019-02-23T20:18:15.750Z,3.70
2019-02-23T20:20:45.833Z,4.22
2019-02-23T20:23:22.245Z,4.35
2019-02-23T20:25:52.364Z,4.62
2019-02-23T20:28:22.502Z,3.90
2019-02-23T20:30:53.500Z,5.50
2019-02-23T20:33:23.348Z,4.40
2019-02-23T20:35:53.314Z,4.12
2019-02-23T20:38:23.188Z,3.83
2019-02-23T20:40:53.177Z,4.75
2019-02-23T20:43:24.340Z,3.58
2019-02-23T20:45:54.505Z,6.22
2019-02-23T20:48:24.728Z,3.47
2019-02-23T20:50:54.830Z,3.80
2019-02-23T20:53:24.672Z,5.03
2019-02-23T20:55:55.625Z,3.75
2019-02-23T20:58:27.451Z,3.37
2019-02-23T21:01:17.065Z,3.42
2019-02-23T21:03:46.900Z,3.47
2019-02-23T21:06:16.857Z,3.92
2019-02-23T21:08:48.952Z,4.22
2019-02-23T21:11:19.096Z,4.30
2019-02-23T21:13:51.704Z,4.17
2019-02-23T21:16:27.800Z,3.87
2019-02-23T21:18:57.934Z,4.22
2019-02-23T21:21:28.616Z,4.62
2019-02-23T21:23:58.719Z,5.95
2019-02-23T21:26:28.826Z,3.33
2019-02-23T21:28:59.900Z,4.80
2019-02-23T21:31:30.021Z,3.30
2019-02-23T21:33:59.873Z,3.72
2019-02-23T21:36:30.030Z,3.90
2019-02-23T21:39:00.152Z,4.72
2019-02-23T21:41:32.271Z,4.30
2019-02-23T21:44:02.122Z,5.25
2019-02-23T21:46:32.086Z,4.37
2019-02-23T21:49:02.197Z,4.60
2019-02-23T21:51:33.233Z,2.98
2019-02-23T21:54:09.974Z,3.35
2019-02-23T21:56:35.941Z,3.65
2019-02-23T21:59:06.542Z,2.52
2019-02-23T22:01:38.566Z,2.70
2019-02-23T22:04:08.670Z,5.20
2019-02-23T22:06:38.795Z,5.22
2019-02-23T22:09:08.980Z,5.10
2019-02-23T22:11:41.503Z,4.62
2019-02-23T22:14:12.142Z,4.45
2019-02-23T22:16:42.099Z,3.65
2019-02-23T22:19:13.143Z,3.52
2019-02-23T22:21:45.366Z,3.22
2019-02-23T22:24:29.976Z,3.60
2019-02-23T22:26:59.951Z,2.70
2019-02-23T22:29:31.721Z,3.17
2019-02-23T22:32:03.396Z,3.65
2019-02-23T22:34:33.446Z,3.42
2019-02-23T22:37:05.276Z,3.65
2019-02-23T22:39:35.216Z,3.45
2019-02-23T22:42:06.237Z,4.80
2019-02-23T22:44:39.192Z,3.75
2019-02-23T22:47:09.176Z,2.70
2019-02-23T22:49:48.152Z,3.25
2019-02-23T22:52:18.047Z,3.47
2019-02-23T22:54:49.738Z,4.20
2019-02-23T22:57:21.718Z,3.00
2019-02-23T22:59:52.492Z,3.65
2019-02-23T23:02:23.232Z,3.60
2019-02-23T23:04:53.297Z,3.87
2019-02-23T23:07:23.436Z,3.15
2019-02-23T23:09:54.593Z,4.60
2019-02-23T23:12:26.376Z,3.55
2019-02-23T23:15:02.192Z,3.95
2019-02-23T23:17:32.293Z,4.20
2019-02-23T23:20:02.406Z,4.53
2019-02-23T23:22:32.544Z,3.75
2019-02-23T23:25:02.727Z,4.45
2019-02-23T23:27:32.878Z,3.75
2019-02-23T23:30:04.774Z,3.65
2019-02-23T23:32:34.543Z,3.75
2019-02-23T23:35:06.173Z,4.45
2019-02-23T23:37:36.013Z,3.98
2019-02-23T23:40:07.836Z,4.47
2019-02-23T23:42:39.908Z,4.55
2019-02-23T23:45:21.720Z,4.05
2019-02-23T23:47:51.443Z,4.08
2019-02-23T23:50:21.477Z,5.65
2019-02-23T23:52:54.513Z,7.15
2019-02-23T23:55:24.681Z,4.47
2019-02-23T23:57:58.211Z,5.90
